Coopersville, Michigan
Current Conditions -  °F | °C
As of 12:55 AM on Friday 31 Oct 2014 (Local Time) from KMKG Reporting Station
Overcast Overcast  
Wind Chill: 50°   Ceiling: 4900
Heat Index: 50°   Visibility: 10mi
Dew Point: 37°   Wind: 13mph
Humidity: 61%   Direction: 270°W
Pressure: 29.96"   Gusts: 21mph
Location:  43.06°N, 85.93°W
Report Text: KMKG 310455Z AUTO 27011G18KT 10SM FEW031 BKN049 OVC070 10/03 A2996 RMK AO2 RAB31E42 SLP149 P0000 T01000028 401110067
Loading
Personal Weather Stations






























Interactive Weather Map
Tropical Storm Tracking
New forecast layout! Learn more

10-Day Weather Forecast

Advertisements
Track Severe Weather on mobile